FVMW weather

Murewa Airport
Murewa, Mashonaland East Province, Zimbabwe

Public forecast

Using degrees Celsius for public forecast. Weather courtesy of forecast.io.

METAR (pilot weather report)

Report is more than 2 hours old.

Closest report is Robert Gabriel Mugabe International Airport, 43.8 nm (81.2 km) WSW. Retrieved 2019/04/21 03:00 UTC (5 hours ago):

FVRG 210300Z 00000KT CAVOK 12/12 Q1022 NOSIG

TAF (pilot weather forecast)

Forecast is more than 12 hours old.

Closest forecast is Robert Gabriel Mugabe International Airport, 43.8 nm (81.2 km) WSW. Retrieved 2019/04/20 12:00 UTC (20 hours ago):

TAF FVRG 201000Z 2012/2118 13009KT CAVOK